Archival Weather

Gondia Arpt/Birsi

Gondia Arpt/Birsi, India (VAGD)

Report from: Thursday, April 25, 2024 9:00 AM UTC
Current time: Saturday, June 22, 2024 8:40 AM UTC

Current weather – Weather history – Daily summaries
Weather forecast

Present weatherHaze
Temperature38.0°C (100.4°F)
Heat index42.4°C (108.2°F)
Dew point21.0°C (69.8°F)
Winds 5 kts (2.6 m/s, 5.8 mph) Southwest (230°)
Visibility3.1 mi. (5 km)
Clouds Few clouds 2,000 ft. (610 m)
Scattered clouds 10,000 ft. (3,048 m)
Altimeter29.74 in.Hg (1007 mB)
Relative humidity38 %
Density altitude3,138 ft. (957 m)
Remarks No significant changes expected in the next two hours
Flight conditions Marginal Visual Meteorological Conditions
Raw dataVAGD 250900Z 23005KT 5000 HZ FEW020 SCT100 38/21 Q1007 NOSIG
An error has occurred. This application may no longer respond until reloaded. Reload 🗙